sensor_id;sensor_type;location;lat;lon;timestamp;temperature;humidity
15705;DHT22;7952;48.396;12.806;2023-05-18T00:02:05;12.00;55.80
15705;DHT22;7952;48.396;12.806;2023-05-18T00:04:35;12.00;56.40
15705;DHT22;7952;48.396;12.806;2023-05-18T00:07:02;12.00;55.80
15705;DHT22;7952;48.396;12.806;2023-05-18T00:09:30;12.00;55.80
15705;DHT22;7952;48.396;12.806;2023-05-18T00:11:57;12.00;55.80
15705;DHT22;7952;48.396;12.806;2023-05-18T00:14:23;12.00;55.90
15705;DHT22;7952;48.396;12.806;2023-05-18T00:16:49;12.00;55.80
15705;DHT22;7952;48.396;12.806;2023-05-18T00:19:18;12.00;55.80
15705;DHT22;7952;48.396;12.806;2023-05-18T00:21:45;12.00;55.80
15705;DHT22;7952;48.396;12.806;2023-05-18T00:24:13;12.00;55.80
15705;DHT22;7952;48.396;12.806;2023-05-18T00:26:40;12.00;55.90
15705;DHT22;7952;48.396;12.806;2023-05-18T00:29:07;12.00;55.90
15705;DHT22;7952;48.396;12.806;2023-05-18T00:31:34;12.00;55.90
15705;DHT22;7952;48.396;12.806;2023-05-18T00:34:07;12.00;55.90
15705;DHT22;7952;48.396;12.806;2023-05-18T00:36:34;12.00;55.90
15705;DHT22;7952;48.396;12.806;2023-05-18T00:39:05;12.00;55.90
15705;DHT22;7952;48.396;12.806;2023-05-18T00:41:32;12.00;55.90
15705;DHT22;7952;48.396;12.806;2023-05-18T00:43:58;12.00;55.90
15705;DHT22;7952;48.396;12.806;2023-05-18T00:46:25;12.00;55.90
15705;DHT22;7952;48.396;12.806;2023-05-18T00:48:52;12.00;55.90
15705;DHT22;7952;48.396;12.806;2023-05-18T00:51:20;12.00;55.90
15705;DHT22;7952;48.396;12.806;2023-05-18T00:53:52;12.00;55.90
15705;DHT22;7952;48.396;12.806;2023-05-18T00:56:19;12.00;56.00
15705;DHT22;7952;48.396;12.806;2023-05-18T00:58:52;12.00;56.00
15705;DHT22;7952;48.396;12.806;2023-05-18T01:01:26;12.00;56.00
15705;DHT22;7952;48.396;12.806;2023-05-18T01:03:56;12.00;56.00
15705;DHT22;7952;48.396;12.806;2023-05-18T01:06:22;12.00;56.00
15705;DHT22;7952;48.396;12.806;2023-05-18T01:08:51;12.00;56.00
15705;DHT22;7952;48.396;12.806;2023-05-18T01:13:57;12.00;56.00
15705;DHT22;7952;48.396;12.806;2023-05-18T01:16:29;12.00;56.00
15705;DHT22;7952;48.396;12.806;2023-05-18T01:19:16;12.00;56.00
15705;DHT22;7952;48.396;12.806;2023-05-18T01:24:47;12.00;56.00
15705;DHT22;7952;48.396;12.806;2023-05-18T01:27:16;11.90;56.00
15705;DHT22;7952;48.396;12.806;2023-05-18T01:29:44;11.90;56.00
15705;DHT22;7952;48.396;12.806;2023-05-18T01:32:17;11.90;56.10
15705;DHT22;7952;48.396;12.806;2023-05-18T01:34:44;11.90;56.10
15705;DHT22;7952;48.396;12.806;2023-05-18T01:37:10;11.80;56.00
15705;DHT22;7952;48.396;12.806;2023-05-18T01:39:36;11.80;56.10
15705;DHT22;7952;48.396;12.806;2023-05-18T01:42:07;11.70;56.10
15705;DHT22;7952;48.396;12.806;2023-05-18T01:44:40;11.70;56.10
15705;DHT22;7952;48.396;12.806;2023-05-18T01:47:14;11.70;56.10
15705;DHT22;7952;48.396;12.806;2023-05-18T01:49:47;11.70;56.10
15705;DHT22;7952;48.396;12.806;2023-05-18T01:52:20;11.60;56.10
15705;DHT22;7952;48.396;12.806;2023-05-18T01:54:51;11.60;56.10
15705;DHT22;7952;48.396;12.806;2023-05-18T01:57:20;11.60;56.20
15705;DHT22;7952;48.396;12.806;2023-05-18T01:59:49;11.60;56.20
15705;DHT22;7952;48.396;12.806;2023-05-18T02:02:15;11.60;56.30
15705;DHT22;7952;48.396;12.806;2023-05-18T02:04:42;11.50;56.20
15705;DHT22;7952;48.396;12.806;2023-05-18T02:07:07;11.50;56.20
15705;DHT22;7952;48.396;12.806;2023-05-18T02:09:33;11.50;56.20
15705;DHT22;7952;48.396;12.806;2023-05-18T02:11:59;11.50;56.30
15705;DHT22;7952;48.396;12.806;2023-05-18T02:14:25;11.50;56.30
15705;DHT22;7952;48.396;12.806;2023-05-18T02:16:51;11.50;56.30
15705;DHT22;7952;48.396;12.806;2023-05-18T02:19:20;11.50;56.30
15705;DHT22;7952;48.396;12.806;2023-05-18T02:21:46;11.50;56.30
15705;DHT22;7952;48.396;12.806;2023-05-18T02:24:12;11.50;56.40
15705;DHT22;7952;48.396;12.806;2023-05-18T02:26:38;11.50;56.30
15705;DHT22;7952;48.396;12.806;2023-05-18T02:29:06;11.50;56.30
15705;DHT22;7952;48.396;12.806;2023-05-18T02:31:33;11.50;56.30
15705;DHT22;7952;48.396;12.806;2023-05-18T02:34:00;11.50;56.30
15705;DHT22;7952;48.396;12.806;2023-05-18T02:36:26;11.50;56.30
15705;DHT22;7952;48.396;12.806;2023-05-18T02:38:51;11.50;56.30
15705;DHT22;7952;48.396;12.806;2023-05-18T02:41:17;11.50;56.30
15705;DHT22;7952;48.396;12.806;2023-05-18T02:43:43;11.40;56.20
15705;DHT22;7952;48.396;12.806;2023-05-18T02:46:09;11.40;56.20
15705;DHT22;7952;48.396;12.806;2023-05-18T02:48:34;11.40;56.20
15705;DHT22;7952;48.396;12.806;2023-05-18T02:51:04;11.40;56.20
15705;DHT22;7952;48.396;12.806;2023-05-18T02:53:29;11.40;56.30
15705;DHT22;7952;48.396;12.806;2023-05-18T02:55:55;11.50;56.40
15705;DHT22;7952;48.396;12.806;2023-05-18T02:58:27;11.40;56.20
15705;DHT22;7952;48.396;12.806;2023-05-18T03:00:56;11.50;56.30
15705;DHT22;7952;48.396;12.806;2023-05-18T03:03:24;11.50;56.30
15705;DHT22;7952;48.396;12.806;2023-05-18T03:05:50;11.50;56.30
15705;DHT22;7952;48.396;12.806;2023-05-18T03:08:20;11.50;56.30
15705;DHT22;7952;48.396;12.806;2023-05-18T03:10:47;11.50;56.30
15705;DHT22;7952;48.396;12.806;2023-05-18T03:13:13;11.50;56.30
15705;DHT22;7952;48.396;12.806;2023-05-18T03:15:39;11.50;56.30
15705;DHT22;7952;48.396;12.806;2023-05-18T03:18:05;11.50;56.30
15705;DHT22;7952;48.396;12.806;2023-05-18T03:20:31;11.40;56.20
15705;DHT22;7952;48.396;12.806;2023-05-18T03:22:57;11.40;56.20
15705;DHT22;7952;48.396;12.806;2023-05-18T03:25:23;11.40;56.20
15705;DHT22;7952;48.396;12.806;2023-05-18T03:27:51;11.40;56.50
15705;DHT22;7952;48.396;12.806;2023-05-18T03:30:18;11.40;56.20
15705;DHT22;7952;48.396;12.806;2023-05-18T03:32:46;11.40;56.30
15705;DHT22;7952;48.396;12.806;2023-05-18T03:35:12;11.50;56.30
15705;DHT22;7952;48.396;12.806;2023-05-18T03:37:38;11.40;56.20
15705;DHT22;7952;48.396;12.806;2023-05-18T03:40:12;11.40;56.20
15705;DHT22;7952;48.396;12.806;2023-05-18T03:42:40;11.40;56.30
15705;DHT22;7952;48.396;12.806;2023-05-18T03:45:07;11.40;56.30
15705;DHT22;7952;48.396;12.806;2023-05-18T03:47:33;11.30;56.20
15705;DHT22;7952;48.396;12.806;2023-05-18T03:49:58;11.30;56.30
15705;DHT22;7952;48.396;12.806;2023-05-18T03:52:24;11.30;56.30
15705;DHT22;7952;48.396;12.806;2023-05-18T03:54:50;11.30;56.40
15705;DHT22;7952;48.396;12.806;2023-05-18T03:57:16;11.30;56.40
15705;DHT22;7952;48.396;12.806;2023-05-18T03:59:46;11.30;56.40
15705;DHT22;7952;48.396;12.806;2023-05-18T04:02:14;11.30;56.40
15705;DHT22;7952;48.396;12.806;2023-05-18T04:04:41;11.30;56.50
15705;DHT22;7952;48.396;12.806;2023-05-18T04:07:10;11.30;56.50
15705;DHT22;7952;48.396;12.806;2023-05-18T04:09:37;11.30;56.50
15705;DHT22;7952;48.396;12.806;2023-05-18T04:12:03;11.30;56.50
15705;DHT22;7952;48.396;12.806;2023-05-18T04:14:28;11.30;56.50
15705;DHT22;7952;48.396;12.806;2023-05-18T04:16:58;11.40;56.60
15705;DHT22;7952;48.396;12.806;2023-05-18T04:19:33;11.40;56.50
15705;DHT22;7952;48.396;12.806;2023-05-18T04:22:00;11.40;56.50
15705;DHT22;7952;48.396;12.806;2023-05-18T04:24:32;11.40;56.50
15705;DHT22;7952;48.396;12.806;2023-05-18T04:26:59;11.40;56.60
15705;DHT22;7952;48.396;12.806;2023-05-18T04:29:26;11.40;56.50
15705;DHT22;7952;48.396;12.806;2023-05-18T04:31:56;11.40;56.50
15705;DHT22;7952;48.396;12.806;2023-05-18T04:34:28;11.40;56.50
15705;DHT22;7952;48.396;12.806;2023-05-18T04:36:56;11.40;56.50
15705;DHT22;7952;48.396;12.806;2023-05-18T04:39:24;11.50;56.60
15705;DHT22;7952;48.396;12.806;2023-05-18T04:41:53;11.50;56.60
15705;DHT22;7952;48.396;12.806;2023-05-18T04:44:31;11.50;56.60
15705;DHT22;7952;48.396;12.806;2023-05-18T04:47:01;11.50;56.60
15705;DHT22;7952;48.396;12.806;2023-05-18T04:49:27;11.60;56.70
15705;DHT22;7952;48.396;12.806;2023-05-18T04:51:54;11.60;56.70
15705;DHT22;7952;48.396;12.806;2023-05-18T04:54:25;11.60;56.70
15705;DHT22;7952;48.396;12.806;2023-05-18T04:56:51;11.70;56.70
15705;DHT22;7952;48.396;12.806;2023-05-18T04:59:18;11.70;56.70
15705;DHT22;7952;48.396;12.806;2023-05-18T05:01:44;11.80;56.70
15705;DHT22;7952;48.396;12.806;2023-05-18T05:04:11;11.90;56.70
15705;DHT22;7952;48.396;12.806;2023-05-18T05:06:37;11.90;56.70
15705;DHT22;7952;48.396;12.806;2023-05-18T05:09:03;12.00;56.60
15705;DHT22;7952;48.396;12.806;2023-05-18T05:11:28;12.10;56.60
15705;DHT22;7952;48.396;12.806;2023-05-18T05:13:54;12.20;56.60
15705;DHT22;7952;48.396;12.806;2023-05-18T05:16:20;12.20;56.40
15705;DHT22;7952;48.396;12.806;2023-05-18T05:18:46;12.20;56.40
15705;DHT22;7952;48.396;12.806;2023-05-18T05:21:11;12.30;56.80
15705;DHT22;7952;48.396;12.806;2023-05-18T05:23:40;12.30;56.40
15705;DHT22;7952;48.396;12.806;2023-05-18T05:26:05;12.30;56.40
15705;DHT22;7952;48.396;12.806;2023-05-18T05:28:37;12.30;56.40
15705;DHT22;7952;48.396;12.806;2023-05-18T05:31:06;12.40;56.40
15705;DHT22;7952;48.396;12.806;2023-05-18T05:34:16;12.40;56.40
15705;DHT22;7952;48.396;12.806;2023-05-18T05:39:48;12.50;56.60
15705;DHT22;7952;48.396;12.806;2023-05-18T05:45:27;12.60;56.80
15705;DHT22;7952;48.396;12.806;2023-05-18T05:47:59;12.70;56.70
15705;DHT22;7952;48.396;12.806;2023-05-18T05:50:28;12.70;56.70
15705;DHT22;7952;48.396;12.806;2023-05-18T05:53:22;12.80;56.70
15705;DHT22;7952;48.396;12.806;2023-05-18T05:59:06;12.90;56.80
15705;DHT22;7952;48.396;12.806;2023-05-18T06:01:55;13.00;56.80
15705;DHT22;7952;48.396;12.806;2023-05-18T06:04:21;13.20;57.00
15705;DHT22;7952;48.396;12.806;2023-05-18T06:06:49;13.30;57.10
15705;DHT22;7952;48.396;12.806;2023-05-18T06:09:15;13.40;57.00
15705;DHT22;7952;48.396;12.806;2023-05-18T06:11:41;13.50;57.00
15705;DHT22;7952;48.396;12.806;2023-05-18T06:14:07;13.70;57.10
15705;DHT22;7952;48.396;12.806;2023-05-18T06:16:32;13.80;57.10
15705;DHT22;7952;48.396;12.806;2023-05-18T06:18:58;14.00;57.10
15705;DHT22;7952;48.396;12.806;2023-05-18T06:21:24;14.20;57.10
15705;DHT22;7952;48.396;12.806;2023-05-18T06:23:50;14.30;56.90
15705;DHT22;7952;48.396;12.806;2023-05-18T06:26:15;14.50;56.70
15705;DHT22;7952;48.396;12.806;2023-05-18T06:28:41;14.60;56.70
15705;DHT22;7952;48.396;12.806;2023-05-18T06:31:07;14.80;56.70
15705;DHT22;7952;48.396;12.806;2023-05-18T06:33:33;14.90;56.60
15705;DHT22;7952;48.396;12.806;2023-05-18T06:35:59;15.00;56.50
15705;DHT22;7952;48.396;12.806;2023-05-18T06:38:24;15.20;56.40
15705;DHT22;7952;48.396;12.806;2023-05-18T06:40:50;15.30;56.20
15705;DHT22;7952;48.396;12.806;2023-05-18T06:43:16;15.40;56.00
15705;DHT22;7952;48.396;12.806;2023-05-18T06:45:41;15.50;56.10
15705;DHT22;7952;48.396;12.806;2023-05-18T06:48:07;15.60;56.00
15705;DHT22;7952;48.396;12.806;2023-05-18T06:50:33;15.70;56.00
15705;DHT22;7952;48.396;12.806;2023-05-18T06:52:59;15.70;55.90
15705;DHT22;7952;48.396;12.806;2023-05-18T06:55:26;15.80;56.00
15705;DHT22;7952;48.396;12.806;2023-05-18T06:57:52;15.80;55.90
15705;DHT22;7952;48.396;12.806;2023-05-18T07:00:21;15.80;55.80
15705;DHT22;7952;48.396;12.806;2023-05-18T07:02:46;15.80;55.70
15705;DHT22;7952;48.396;12.806;2023-05-18T07:05:12;15.80;55.70
15705;DHT22;7952;48.396;12.806;2023-05-18T07:07:39;15.80;55.70
15705;DHT22;7952;48.396;12.806;2023-05-18T07:10:05;15.90;56.10
15705;DHT22;7952;48.396;12.806;2023-05-18T07:12:31;16.20;56.30
15705;DHT22;7952;48.396;12.806;2023-05-18T07:14:57;16.40;56.10
15705;DHT22;7952;48.396;12.806;2023-05-18T07:17:24;16.70;55.90
15705;DHT22;7952;48.396;12.806;2023-05-18T07:19:50;16.90;55.70
15705;DHT22;7952;48.396;12.806;2023-05-18T07:22:16;17.10;55.40
15705;DHT22;7952;48.396;12.806;2023-05-18T07:24:42;17.20;55.80
15705;DHT22;7952;48.396;12.806;2023-05-18T07:27:08;17.40;55.00
15705;DHT22;7952;48.396;12.806;2023-05-18T07:29:33;17.50;54.80
15705;DHT22;7952;48.396;12.806;2023-05-18T07:31:59;17.70;54.50
15705;DHT22;7952;48.396;12.806;2023-05-18T07:34:25;17.80;53.90
15705;DHT22;7952;48.396;12.806;2023-05-18T07:36:52;18.00;53.80
15705;DHT22;7952;48.396;12.806;2023-05-18T07:39:18;18.10;53.70
15705;DHT22;7952;48.396;12.806;2023-05-18T07:41:47;18.30;53.60
15705;DHT22;7952;48.396;12.806;2023-05-18T07:44:14;18.50;53.60
15705;DHT22;7952;48.396;12.806;2023-05-18T07:46:42;18.60;53.00
15705;DHT22;7952;48.396;12.806;2023-05-18T07:49:07;18.70;52.70
15705;DHT22;7952;48.396;12.806;2023-05-18T07:51:33;18.70;52.60
15705;DHT22;7952;48.396;12.806;2023-05-18T07:53:59;18.60;52.50
15705;DHT22;7952;48.396;12.806;2023-05-18T07:56:25;18.60;52.60
15705;DHT22;7952;48.396;12.806;2023-05-18T07:58:51;18.50;52.20
15705;DHT22;7952;48.396;12.806;2023-05-18T08:01:17;18.50;51.70
15705;DHT22;7952;48.396;12.806;2023-05-18T08:03:42;18.60;51.40
15705;DHT22;7952;48.396;12.806;2023-05-18T08:06:08;18.60;51.20
15705;DHT22;7952;48.396;12.806;2023-05-18T08:08:34;18.70;51.30
15705;DHT22;7952;48.396;12.806;2023-05-18T08:11:03;18.80;51.00
15705;DHT22;7952;48.396;12.806;2023-05-18T08:13:29;18.70;50.70
15705;DHT22;7952;48.396;12.806;2023-05-18T08:15:55;18.60;50.50
15705;DHT22;7952;48.396;12.806;2023-05-18T08:18:21;18.40;50.80
15705;DHT22;7952;48.396;12.806;2023-05-18T08:20:47;18.30;51.20
15705;DHT22;7952;48.396;12.806;2023-05-18T08:23:14;18.30;51.00
15705;DHT22;7952;48.396;12.806;2023-05-18T08:25:40;18.30;50.60
15705;DHT22;7952;48.396;12.806;2023-05-18T08:28:06;18.30;50.50
15705;DHT22;7952;48.396;12.806;2023-05-18T08:30:32;18.20;50.40
15705;DHT22;7952;48.396;12.806;2023-05-18T08:32:57;18.20;50.40
15705;DHT22;7952;48.396;12.806;2023-05-18T08:35:23;18.10;50.80
15705;DHT22;7952;48.396;12.806;2023-05-18T08:37:49;18.20;50.90
15705;DHT22;7952;48.396;12.806;2023-05-18T08:40:15;18.20;50.90
15705;DHT22;7952;48.396;12.806;2023-05-18T08:43:06;18.40;50.90
15705;DHT22;7952;48.396;12.806;2023-05-18T08:45:40;18.50;50.70
15705;DHT22;7952;48.396;12.806;2023-05-18T08:48:10;18.60;50.60
15705;DHT22;7952;48.396;12.806;2023-05-18T08:50:37;18.60;50.20
15705;DHT22;7952;48.396;12.806;2023-05-18T08:53:05;18.60;50.00
15705;DHT22;7952;48.396;12.806;2023-05-18T08:55:32;18.50;49.80
15705;DHT22;7952;48.396;12.806;2023-05-18T08:58:02;18.40;50.30
15705;DHT22;7952;48.396;12.806;2023-05-18T09:00:28;18.30;49.60
15705;DHT22;7952;48.396;12.806;2023-05-18T09:02:55;18.30;49.80
15705;DHT22;7952;48.396;12.806;2023-05-18T09:05:22;18.20;49.80
15705;DHT22;7952;48.396;12.806;2023-05-18T09:07:49;18.10;49.40
15705;DHT22;7952;48.396;12.806;2023-05-18T09:10:16;18.00;49.30
15705;DHT22;7952;48.396;12.806;2023-05-18T09:12:43;17.90;49.40
15705;DHT22;7952;48.396;12.806;2023-05-18T09:15:12;17.90;49.70
15705;DHT22;7952;48.396;12.806;2023-05-18T09:17:39;17.90;49.60
15705;DHT22;7952;48.396;12.806;2023-05-18T09:20:05;17.80;49.40
15705;DHT22;7952;48.396;12.806;2023-05-18T09:22:32;17.80;49.50
15705;DHT22;7952;48.396;12.806;2023-05-18T09:25:03;17.70;49.70
15705;DHT22;7952;48.396;12.806;2023-05-18T09:27:30;17.70;49.70
15705;DHT22;7952;48.396;12.806;2023-05-18T09:29:57;17.70;49.70
15705;DHT22;7952;48.396;12.806;2023-05-18T09:32:24;17.70;49.70
15705;DHT22;7952;48.396;12.806;2023-05-18T09:34:51;17.60;49.50
15705;DHT22;7952;48.396;12.806;2023-05-18T09:37:18;17.50;49.60
15705;DHT22;7952;48.396;12.806;2023-05-18T09:39:45;17.50;49.70
15705;DHT22;7952;48.396;12.806;2023-05-18T09:42:35;17.50;49.70
15705;DHT22;7952;48.396;12.806;2023-05-18T09:47:35;17.50;49.70
15705;DHT22;7952;48.396;12.806;2023-05-18T09:50:01;17.60;50.20
15705;DHT22;7952;48.396;12.806;2023-05-18T09:52:26;17.70;50.20
15705;DHT22;7952;48.396;12.806;2023-05-18T09:54:57;17.80;49.90
15705;DHT22;7952;48.396;12.806;2023-05-18T09:57:24;17.80;49.70
15705;DHT22;7952;48.396;12.806;2023-05-18T09:59:55;17.80;49.50
15705;DHT22;7952;48.396;12.806;2023-05-18T10:02:21;17.90;49.60
15705;DHT22;7952;48.396;12.806;2023-05-18T10:04:50;17.80;49.50
15705;DHT22;7952;48.396;12.806;2023-05-18T10:07:16;17.70;49.60
15705;DHT22;7952;48.396;12.806;2023-05-18T10:09:43;17.70;49.70
15705;DHT22;7952;48.396;12.806;2023-05-18T10:12:11;17.60;49.70
15705;DHT22;7952;48.396;12.806;2023-05-18T10:14:37;17.60;49.80
15705;DHT22;7952;48.396;12.806;2023-05-18T10:17:03;17.60;49.80
15705;DHT22;7952;48.396;12.806;2023-05-18T10:19:33;17.60;49.70
15705;DHT22;7952;48.396;12.806;2023-05-18T10:22:03;17.50;49.70
15705;DHT22;7952;48.396;12.806;2023-05-18T10:24:33;17.60;50.20
15705;DHT22;7952;48.396;12.806;2023-05-18T10:27:01;17.70;49.90
15705;DHT22;7952;48.396;12.806;2023-05-18T10:29:31;17.80;49.70
15705;DHT22;7952;48.396;12.806;2023-05-18T10:31:59;17.80;49.60
15705;DHT22;7952;48.396;12.806;2023-05-18T10:34:29;17.90;49.20
15705;DHT22;7952;48.396;12.806;2023-05-18T10:36:55;17.80;49.10
15705;DHT22;7952;48.396;12.806;2023-05-18T10:39:22;17.80;49.00
15705;DHT22;7952;48.396;12.806;2023-05-18T10:41:49;17.70;49.20
15705;DHT22;7952;48.396;12.806;2023-05-18T10:44:16;17.70;49.20
15705;DHT22;7952;48.396;12.806;2023-05-18T10:46:42;17.70;49.30
15705;DHT22;7952;48.396;12.806;2023-05-18T10:49:10;17.70;49.60
15705;DHT22;7952;48.396;12.806;2023-05-18T10:51:41;17.80;49.50
15705;DHT22;7952;48.396;12.806;2023-05-18T10:54:12;17.80;49.40
15705;DHT22;7952;48.396;12.806;2023-05-18T10:56:44;17.80;49.30
15705;DHT22;7952;48.396;12.806;2023-05-18T10:59:12;17.80;49.30
15705;DHT22;7952;48.396;12.806;2023-05-18T11:01:39;17.70;49.20
15705;DHT22;7952;48.396;12.806;2023-05-18T11:04:06;17.70;49.30
15705;DHT22;7952;48.396;12.806;2023-05-18T11:06:33;17.70;49.40
15705;DHT22;7952;48.396;12.806;2023-05-18T11:09:00;17.70;49.20
15705;DHT22;7952;48.396;12.806;2023-05-18T11:11:27;17.70;49.10
15705;DHT22;7952;48.396;12.806;2023-05-18T11:14:02;17.60;49.00
15705;DHT22;7952;48.396;12.806;2023-05-18T11:16:35;17.50;48.80
15705;DHT22;7952;48.396;12.806;2023-05-18T11:19:08;17.50;48.80
15705;DHT22;7952;48.396;12.806;2023-05-18T11:24:23;17.40;49.10
15705;DHT22;7952;48.396;12.806;2023-05-18T11:26:54;17.30;49.00
15705;DHT22;7952;48.396;12.806;2023-05-18T11:29:30;17.30;49.10
15705;DHT22;7952;48.396;12.806;2023-05-18T11:31:57;17.20;49.10
15705;DHT22;7952;48.396;12.806;2023-05-18T11:34:45;17.20;49.30
15705;DHT22;7952;48.396;12.806;2023-05-18T11:37:15;17.30;49.30
15705;DHT22;7952;48.396;12.806;2023-05-18T11:39:52;17.20;49.10
15705;DHT22;7952;48.396;12.806;2023-05-18T11:42:17;17.30;49.20
15705;DHT22;7952;48.396;12.806;2023-05-18T11:44:54;17.20;49.10
15705;DHT22;7952;48.396;12.806;2023-05-18T11:47:22;17.20;49.10
15705;DHT22;7952;48.396;12.806;2023-05-18T11:49:48;17.20;49.10
15705;DHT22;7952;48.396;12.806;2023-05-18T11:52:23;17.20;49.10
15705;DHT22;7952;48.396;12.806;2023-05-18T11:54:51;17.20;49.20
15705;DHT22;7952;48.396;12.806;2023-05-18T11:57:19;17.10;49.10
15705;DHT22;7952;48.396;12.806;2023-05-18T11:59:56;17.10;49.10
15705;DHT22;7952;48.396;12.806;2023-05-18T12:02:38;17.10;49.10
15705;DHT22;7952;48.396;12.806;2023-05-18T12:05:07;17.10;49.10
15705;DHT22;7952;48.396;12.806;2023-05-18T12:07:34;17.10;49.10
15705;DHT22;7952;48.396;12.806;2023-05-18T12:10:06;17.10;49.10
15705;DHT22;7952;48.396;12.806;2023-05-18T12:12:33;17.10;49.30
15705;DHT22;7952;48.396;12.806;2023-05-18T12:15:01;17.00;49.40
15705;DHT22;7952;48.396;12.806;2023-05-18T12:17:41;17.10;49.50
15705;DHT22;7952;48.396;12.806;2023-05-18T12:20:14;17.10;49.50
15705;DHT22;7952;48.396;12.806;2023-05-18T12:22:48;17.10;49.50
15705;DHT22;7952;48.396;12.806;2023-05-18T12:25:18;17.10;49.50
15705;DHT22;7952;48.396;12.806;2023-05-18T12:27:45;17.10;49.50
15705;DHT22;7952;48.396;12.806;2023-05-18T12:30:19;17.00;49.40
15705;DHT22;7952;48.396;12.806;2023-05-18T12:32:50;17.00;49.40
15705;DHT22;7952;48.396;12.806;2023-05-18T12:35:20;17.00;49.60
15705;DHT22;7952;48.396;12.806;2023-05-18T12:37:46;16.90;49.50
15705;DHT22;7952;48.396;12.806;2023-05-18T12:40:16;16.90;49.60
15705;DHT22;7952;48.396;12.806;2023-05-18T12:42:56;16.90;49.70
15705;DHT22;7952;48.396;12.806;2023-05-18T12:45:29;16.80;49.60
15705;DHT22;7952;48.396;12.806;2023-05-18T12:48:03;16.90;49.70
15705;DHT22;7952;48.396;12.806;2023-05-18T12:50:29;16.80;49.70
15705;DHT22;7952;48.396;12.806;2023-05-18T12:52:55;16.80;49.80
15705;DHT22;7952;48.396;12.806;2023-05-18T12:55:21;16.90;49.90
15705;DHT22;7952;48.396;12.806;2023-05-18T12:58:04;16.90;50.00
15705;DHT22;7952;48.396;12.806;2023-05-18T13:00:36;16.90;49.90
15705;DHT22;7952;48.396;12.806;2023-05-18T13:03:10;17.00;50.10
15705;DHT22;7952;48.396;12.806;2023-05-18T13:05:37;17.10;50.20
15705;DHT22;7952;48.396;12.806;2023-05-18T13:08:03;17.10;49.90
15705;DHT22;7952;48.396;12.806;2023-05-18T13:10:29;17.20;49.90
15705;DHT22;7952;48.396;12.806;2023-05-18T13:13:00;17.20;49.80
15705;DHT22;7952;48.396;12.806;2023-05-18T13:15:37;17.20;49.70
15705;DHT22;7952;48.396;12.806;2023-05-18T13:18:06;17.10;49.70
15705;DHT22;7952;48.396;12.806;2023-05-18T13:20:50;17.10;49.70
15705;DHT22;7952;48.396;12.806;2023-05-18T13:23:22;17.10;49.80
15705;DHT22;7952;48.396;12.806;2023-05-18T13:25:49;17.00;50.00
15705;DHT22;7952;48.396;12.806;2023-05-18T13:28:16;17.20;50.10
15705;DHT22;7952;48.396;12.806;2023-05-18T13:30:43;17.20;50.10
15705;DHT22;7952;48.396;12.806;2023-05-18T13:33:09;17.40;50.20
15705;DHT22;7952;48.396;12.806;2023-05-18T13:35:40;17.50;49.90
15705;DHT22;7952;48.396;12.806;2023-05-18T13:38:09;17.50;49.50
15705;DHT22;7952;48.396;12.806;2023-05-18T13:40:36;17.60;49.40
15705;DHT22;7952;48.396;12.806;2023-05-18T13:43:02;17.50;49.30
15705;DHT22;7952;48.396;12.806;2023-05-18T13:45:27;17.60;49.50
15705;DHT22;7952;48.396;12.806;2023-05-18T13:47:55;17.50;49.40
15705;DHT22;7952;48.396;12.806;2023-05-18T13:50:21;17.50;49.30
15705;DHT22;7952;48.396;12.806;2023-05-18T13:52:48;17.50;49.30
15705;DHT22;7952;48.396;12.806;2023-05-18T13:55:14;17.40;49.40
15705;DHT22;7952;48.396;12.806;2023-05-18T13:57:40;17.50;49.60
15705;DHT22;7952;48.396;12.806;2023-05-18T14:00:07;17.50;49.40
15705;DHT22;7952;48.396;12.806;2023-05-18T14:02:41;17.60;49.40
15705;DHT22;7952;48.396;12.806;2023-05-18T14:05:08;17.60;49.20
15705;DHT22;7952;48.396;12.806;2023-05-18T14:07:39;17.50;49.20
15705;DHT22;7952;48.396;12.806;2023-05-18T14:10:06;17.50;49.20
15705;DHT22;7952;48.396;12.806;2023-05-18T14:12:32;17.40;49.20
15705;DHT22;7952;48.396;12.806;2023-05-18T14:14:59;17.40;49.40
15705;DHT22;7952;48.396;12.806;2023-05-18T14:17:25;17.40;49.40
15705;DHT22;7952;48.396;12.806;2023-05-18T14:19:54;17.50;49.60
15705;DHT22;7952;48.396;12.806;2023-05-18T14:22:21;17.60;49.70
15705;DHT22;7952;48.396;12.806;2023-05-18T14:24:47;17.60;49.60
15705;DHT22;7952;48.396;12.806;2023-05-18T14:27:13;17.60;49.40
15705;DHT22;7952;48.396;12.806;2023-05-18T14:29:40;17.60;49.40
15705;DHT22;7952;48.396;12.806;2023-05-18T14:32:06;17.60;49.40
15705;DHT22;7952;48.396;12.806;2023-05-18T14:34:35;17.50;49.10
15705;DHT22;7952;48.396;12.806;2023-05-18T14:37:01;17.50;49.30
15705;DHT22;7952;48.396;12.806;2023-05-18T14:39:27;17.40;49.40
15705;DHT22;7952;48.396;12.806;2023-05-18T14:41:53;17.40;49.60
15705;DHT22;7952;48.396;12.806;2023-05-18T14:44:19;17.40;49.70
15705;DHT22;7952;48.396;12.806;2023-05-18T14:46:44;17.40;49.70
15705;DHT22;7952;48.396;12.806;2023-05-18T14:49:10;17.40;49.60
15705;DHT22;7952;48.396;12.806;2023-05-18T14:51:36;17.40;49.50
15705;DHT22;7952;48.396;12.806;2023-05-18T14:54:02;17.40;49.40
15705;DHT22;7952;48.396;12.806;2023-05-18T14:56:27;17.30;49.40
15705;DHT22;7952;48.396;12.806;2023-05-18T14:58:59;17.30;49.50
15705;DHT22;7952;48.396;12.806;2023-05-18T15:01:24;17.20;49.50
15705;DHT22;7952;48.396;12.806;2023-05-18T15:03:50;17.20;49.60
15705;DHT22;7952;48.396;12.806;2023-05-18T15:06:16;17.10;49.60
15705;DHT22;7952;48.396;12.806;2023-05-18T15:08:42;17.10;49.60
15705;DHT22;7952;48.396;12.806;2023-05-18T15:11:09;17.10;49.70
15705;DHT22;7952;48.396;12.806;2023-05-18T15:13:35;17.00;49.70
15705;DHT22;7952;48.396;12.806;2023-05-18T15:16:01;17.00;49.80
15705;DHT22;7952;48.396;12.806;2023-05-18T15:18:27;17.00;49.80
15705;DHT22;7952;48.396;12.806;2023-05-18T15:20:56;17.00;49.90
15705;DHT22;7952;48.396;12.806;2023-05-18T15:23:22;17.00;50.00
15705;DHT22;7952;48.396;12.806;2023-05-18T15:25:49;17.10;50.00
15705;DHT22;7952;48.396;12.806;2023-05-18T15:28:16;17.10;49.90
15705;DHT22;7952;48.396;12.806;2023-05-18T15:30:42;17.10;49.80
15705;DHT22;7952;48.396;12.806;2023-05-18T15:33:08;17.00;49.80
15705;DHT22;7952;48.396;12.806;2023-05-18T15:35:33;17.00;49.70
15705;DHT22;7952;48.396;12.806;2023-05-18T15:38:01;16.90;49.70
15705;DHT22;7952;48.396;12.806;2023-05-18T15:40:27;16.90;49.80
15705;DHT22;7952;48.396;12.806;2023-05-18T15:42:52;16.80;49.70
15705;DHT22;7952;48.396;12.806;2023-05-18T15:45:18;16.70;49.60
15705;DHT22;7952;48.396;12.806;2023-05-18T15:47:44;16.70;49.70
15705;DHT22;7952;48.396;12.806;2023-05-18T15:50:10;16.70;49.80
15705;DHT22;7952;48.396;12.806;2023-05-18T15:52:37;16.60;49.70
15705;DHT22;7952;48.396;12.806;2023-05-18T15:55:03;16.60;49.80
15705;DHT22;7952;48.396;12.806;2023-05-18T15:57:30;16.50;49.80